Huvudsida
METAR-TAF:

METAR-TAF

Flygplatser :

Xi'an Xianyang International Airport

Xi'an, Kina

latitud: 34-26N, longitud: 108-45E, höjd: 479 m

Aktuellt väderrapport

Denna rapport gjordes för 13 minuter sedan, klockan 06:00 UTC
Vind 12 kt från ost/nordost, varierande mellan nord och ost
Temperatur 36°C
Fuktighet 42%
Tryck 1002 hPa
Sikt 10 km eller mer
Inga moln under 1 500 m eller inga cumulonimbus

METAR: ZLXY 230600Z 06006MPS 010V100 CAVOK 36/21 Q1002 NOSIG

Tid: 14:13 (06:13 UTC)

Väderprognos

Denna rapport gjordes för 3 timmar och 8 minuter sedan, klockan 03:05 UTC
Prognos gäller från 23 kl. 06 UTC till 24 kl. 06 UTC
Vind 10 kt från ost/nordost i byarna ända upp till 19 kt
Sikt: 5000 m
torrdis

TAF: ZLXY 230305Z 2306/2406 06005G10MPS 5000 HZ NSC TX38/2308Z TN26/2322Z

Aktuella väderrapporter och prognoser från 4000 flygplatser (METAR- och TAF-rapporter).

De tillgängliga stationerna syns som gula och röda prickar på kartan.

För musen över prickarna för att se namnen på stationerna.

Klicka sedan för att få väderrapporter och prognoser.

För att ändra kartan: Klicka på de gröna knapparna med ett svart kors på för att zooma in; den gröna knappen med ett streck på för att zooma ut; eller på de gröna pilarna för angränsande kartor.


METAR-TAF: